createdAt,value
2022-10-06T08:26:03.549Z,15.24
2022-10-06T08:27:04.901Z,15.02
2022-10-06T08:28:06.485Z,15.04
2022-10-06T08:29:07.856Z,15.12
2022-10-06T08:30:11.484Z,15.22
2022-10-06T08:57:31.821Z,15.76
2022-10-06T08:58:51.013Z,15.94
2022-10-06T08:59:55.641Z,15.87
2022-10-06T09:01:19.809Z,16.03
2022-10-06T09:02:45.783Z,16.25
2022-10-06T09:03:49.316Z,16.43
2022-10-06T09:04:50.916Z,16.49
2022-10-06T09:06:08.260Z,16.36
2022-10-06T09:07:12.144Z,16.68
2022-10-06T09:08:38.610Z,16.84
2022-10-06T09:09:48.898Z,16.91
2022-10-06T09:11:27.569Z,17.23
2022-10-06T09:12:52.152Z,17.10
2022-10-06T09:14:21.477Z,17.43
2022-10-06T09:15:38.343Z,17.64
2022-10-06T09:16:46.198Z,17.67
2022-10-06T09:17:54.195Z,17.74
2022-10-06T09:19:08.734Z,17.72
2022-10-06T09:20:36.975Z,17.54
2022-10-06T09:21:49.079Z,17.23
2022-10-06T09:22:51.560Z,17.27
2022-10-06T09:23:57.145Z,17.67
2022-10-06T09:25:22.617Z,17.83
2022-10-06T09:26:29.827Z,18.01
2022-10-06T09:27:34.167Z,18.22
2022-10-06T09:28:37.016Z,18.15
2022-10-06T09:29:38.442Z,17.92
2022-10-06T09:30:41.716Z,17.82
2022-10-06T09:31:48.817Z,17.57
2022-10-06T10:28:18.101Z,16.79
2022-10-06T10:29:22.181Z,16.75
2022-10-06T10:30:23.963Z,17.16
2022-10-06T10:31:48.256Z,17.16
2022-10-06T10:33:04.789Z,17.61
2022-10-06T10:34:34.524Z,17.54
2022-10-06T10:35:46.365Z,17.44
2022-10-06T10:36:59.628Z,17.63
2022-10-06T10:38:13.757Z,17.54
2022-10-06T10:39:32.544Z,17.90
2022-10-06T10:40:59.700Z,17.72
2022-10-06T10:42:04.748Z,18.05
2022-10-06T10:43:31.692Z,18.24
2022-10-06T10:50:03.824Z,19.16
2022-10-06T10:51:22.846Z,18.86
2022-10-06T10:52:31.363Z,19.24
2022-10-06T10:53:43.268Z,19.20
2022-10-06T10:55:03.675Z,19.58
2022-10-06T10:56:08.892Z,20.61
2022-10-06T10:57:16.508Z,20.83
2022-10-06T10:58:23.823Z,21.21
2022-10-06T10:59:36.884Z,21.81
2022-10-06T11:00:42.852Z,21.59
2022-10-06T11:01:52.938Z,22.72
2022-10-06T11:02:58.742Z,23.32
2022-10-06T11:04:00.876Z,24.36
2022-10-06T11:05:12.337Z,24.76
2022-10-06T11:06:28.566Z,24.64
2022-10-06T11:07:56.038Z,25.27
2022-10-06T11:09:12.914Z,24.16
2022-10-06T11:10:25.879Z,24.26
2022-10-06T11:11:51.300Z,24.94
2022-10-06T11:13:24.807Z,26.04
2022-10-06T11:20:05.810Z,23.52
2022-10-06T11:21:13.148Z,21.75
2022-10-06T11:22:17.424Z,22.30
2022-10-06T11:23:53.302Z,22.09
2022-10-06T11:25:16.836Z,21.40
2022-10-06T11:26:39.393Z,21.53
2022-10-06T11:27:47.557Z,21.50
2022-10-06T11:28:51.671Z,20.96
2022-10-06T11:30:19.420Z,22.37
2022-10-06T11:31:26.840Z,22.72
2022-10-06T11:38:05.849Z,23.84
2022-10-06T11:39:22.787Z,24.79
2022-10-06T11:40:47.540Z,25.13
2022-10-06T11:42:10.999Z,25.44
2022-10-06T11:43:40.389Z,25.82
2022-10-06T11:44:47.695Z,25.81
2022-10-06T11:46:05.175Z,24.87
2022-10-06T11:47:16.207Z,25.18
2022-10-06T11:48:29.781Z,24.98
2022-10-06T11:49:32.386Z,25.16
2022-10-06T11:56:04.313Z,25.18
2022-10-06T11:57:29.410Z,25.95
2022-10-06T11:58:52.071Z,26.62
2022-10-06T11:59:55.748Z,27.18
2022-10-06T12:01:00.623Z,27.30
2022-10-06T12:02:02.283Z,27.38
2022-10-06T12:03:28.543Z,26.03
2022-10-06T12:04:30.107Z,25.21
2022-10-06T12:06:58.615Z,25.93
2022-10-06T12:08:02.676Z,26.24
2022-10-06T12:09:24.279Z,26.78
2022-10-06T12:10:28.475Z,26.85
2022-10-06T12:11:41.129Z,27.21
2022-10-06T12:12:45.887Z,27.91
2022-10-06T12:17:11.436Z,24.96
2022-10-06T12:18:27.774Z,25.74
2022-10-06T12:19:38.489Z,25.61
2022-10-06T12:20:58.821Z,25.80
2022-10-06T12:22:24.725Z,22.75
2022-10-06T12:23:50.571Z,23.57
2022-10-06T12:25:07.087Z,24.43
2022-10-06T12:26:43.838Z,24.38
2022-10-06T12:28:03.591Z,24.58
2022-10-06T12:29:31.609Z,25.08
2022-10-06T12:31:20.718Z,25.11
2022-10-06T12:32:32.720Z,23.07
2022-10-06T12:33:42.670Z,23.38
2022-10-06T12:35:02.973Z,22.86
2022-10-06T12:36:16.292Z,23.00
2022-10-06T12:37:29.771Z,23.29
2022-10-06T12:38:31.104Z,23.40
2022-10-06T12:39:32.533Z,23.35
2022-10-06T12:40:49.246Z,22.96
2022-10-06T12:42:01.710Z,22.82
2022-10-06T12:43:14.897Z,22.83
2022-10-06T12:50:05.487Z,23.25
2022-10-06T12:51:12.626Z,23.76
2022-10-06T12:52:34.231Z,23.42
2022-10-06T12:53:48.031Z,23.12
2022-10-06T12:55:16.697Z,22.94
2022-10-06T12:56:31.634Z,23.75
2022-10-06T12:57:46.086Z,23.44
2022-10-06T12:58:47.470Z,22.69
2022-10-06T12:59:49.937Z,24.28
2022-10-06T13:00:51.571Z,23.88
2022-10-06T13:01:59.415Z,22.89
2022-10-06T13:08:07.376Z,23.51
2022-10-06T13:09:14.897Z,22.81
2022-10-06T13:10:21.991Z,22.33
2022-10-06T13:11:27.004Z,22.35
2022-10-06T13:12:32.139Z,22.46
2022-10-06T13:13:35.258Z,22.52
2022-10-06T13:14:40.006Z,22.25
2022-10-06T13:15:43.104Z,22.18
2022-10-06T13:16:48.603Z,22.18
2022-10-06T13:17:59.618Z,22.16
2022-10-06T13:19:01.137Z,21.56
2022-10-06T13:20:02.614Z,20.98
2022-10-06T13:21:11.880Z,21.59
2022-10-06T13:22:14.363Z,21.83
2022-10-06T13:23:30.041Z,21.88
2022-10-06T13:24:31.425Z,21.90
2022-10-06T13:25:36.420Z,21.28
2022-10-06T13:32:07.768Z,21.87
2022-10-06T13:33:09.163Z,23.64
2022-10-06T13:34:13.482Z,23.42
2022-10-06T13:35:23.195Z,23.15
2022-10-06T13:36:30.513Z,24.04
2022-10-06T13:37:31.995Z,24.04
2022-10-06T13:38:35.856Z,24.21
2022-10-06T13:39:37.451Z,24.29
2022-10-06T13:40:46.174Z,24.80
2022-10-06T13:42:23.076Z,24.78
2022-10-06T13:43:24.869Z,24.28
2022-10-06T13:44:39.626Z,24.54
2022-10-06T13:45:44.505Z,24.55
2022-10-06T13:46:50.097Z,25.12
2022-10-06T13:48:14.906Z,25.14
2022-10-06T13:49:24.887Z,24.57
2022-10-06T13:50:26.410Z,24.81
2022-10-06T13:51:30.221Z,24.08
2022-10-06T13:52:36.225Z,23.99
2022-10-06T13:53:37.569Z,24.07
2022-10-06T13:54:41.924Z,24.06
2022-10-06T13:55:49.745Z,23.89
2022-10-06T13:56:51.603Z,23.29
2022-10-06T13:58:03.284Z,22.41
2022-10-06T13:59:39.051Z,21.55
2022-10-06T14:00:54.433Z,21.70
2022-10-06T14:01:57.130Z,22.17
2022-10-06T14:08:07.296Z,21.23
2022-10-06T14:09:13.147Z,21.04
2022-10-06T14:10:21.109Z,21.12
2022-10-06T14:11:29.990Z,20.73
2022-10-06T14:12:32.544Z,20.23
2022-10-06T14:14:03.289Z,20.77
2022-10-06T14:15:05.570Z,20.92
2022-10-06T14:16:10.595Z,20.77
2022-10-06T14:17:22.931Z,20.60
2022-10-06T14:18:36.861Z,20.57
2022-10-06T14:19:41.160Z,20.51
2022-10-06T14:20:47.479Z,20.16
2022-10-06T14:21:48.910Z,20.23
2022-10-06T14:22:50.362Z,20.42
2022-10-06T14:23:53.256Z,20.55
2022-10-06T14:24:55.476Z,20.79
2022-10-06T14:25:56.794Z,21.34
2022-10-06T14:27:04.294Z,21.60
2022-10-06T14:28:05.636Z,21.56
2022-10-06T14:29:07.150Z,20.94
2022-10-06T14:30:09.557Z,21.18
2022-10-06T14:31:14.495Z,21.00
2022-10-06T14:39:06.281Z,20.64
2022-10-06T14:40:11.976Z,20.42
2022-10-06T14:41:18.839Z,20.70
2022-10-06T14:42:24.163Z,20.99
2022-10-06T14:43:29.176Z,20.90
2022-10-06T14:44:31.076Z,20.92
2022-10-06T14:45:35.973Z,21.04
2022-10-06T14:46:39.124Z,20.77
2022-10-06T14:47:40.529Z,20.84
2022-10-06T14:48:41.989Z,20.78
2022-10-06T14:49:45.101Z,20.47
2022-10-06T14:50:46.780Z,20.29
2022-10-06T14:51:48.151Z,20.31
2022-10-06T14:52:49.518Z,20.17
2022-10-06T14:53:55.463Z,20.12
2022-10-06T14:54:57.691Z,19.82
2022-10-06T14:56:08.308Z,19.92
2022-10-06T14:57:09.734Z,19.69
2022-10-06T14:58:11.292Z,19.66
2022-10-06T14:59:17.101Z,19.47
2022-10-06T15:00:24.256Z,19.40
2022-10-06T15:01:26.565Z,19.84
2022-10-06T15:08:04.686Z,19.89
2022-10-06T15:09:06.680Z,19.71
2022-10-06T15:10:08.431Z,19.76
2022-10-06T15:11:09.856Z,19.71
2022-10-06T15:12:11.259Z,19.68
2022-10-06T15:13:12.647Z,19.42
2022-10-06T15:14:14.163Z,19.49
2022-10-06T15:15:16.569Z,19.33
2022-10-06T15:16:21.330Z,18.95
2022-10-06T15:17:24.345Z,18.71
2022-10-06T15:18:26.416Z,18.74
2022-10-06T15:19:28.739Z,18.28
2022-10-06T15:32:06.659Z,18.59
2022-10-06T15:33:08.435Z,18.33
2022-10-06T15:34:12.910Z,18.24
2022-10-06T15:35:14.298Z,18.10
2022-10-06T15:36:18.752Z,18.19
2022-10-06T15:37:20.483Z,18.49
2022-10-06T15:38:22.328Z,18.53
2022-10-06T15:39:25.709Z,18.65
2022-10-06T15:40:27.069Z,18.60
2022-10-06T15:41:28.564Z,18.64
2022-10-06T15:42:29.913Z,18.58
2022-10-06T15:43:52.020Z,18.28
2022-10-06T15:44:53.465Z,18.03
2022-10-06T15:45:55.266Z,18.24
2022-10-06T15:46:57.250Z,17.94
2022-10-06T15:47:58.692Z,17.98
2022-10-06T15:49:05.151Z,18.10
2022-10-06T15:50:07.254Z,18.17
2022-10-06T15:51:09.771Z,18.16
2022-10-06T15:52:12.344Z,18.14
2022-10-06T15:53:14.210Z,17.87
2022-10-06T15:54:30.439Z,18.05
2022-10-06T15:55:31.765Z,18.06
2022-10-06T15:56:33.242Z,17.73
2022-10-06T15:57:35.493Z,17.97
2022-10-06T15:58:36.868Z,17.81
2022-10-06T15:59:44.338Z,17.83
2022-10-06T16:00:45.752Z,17.95
2022-10-06T16:01:47.921Z,17.93
2022-10-06T16:08:04.230Z,17.88
2022-10-06T16:09:06.657Z,17.87
2022-10-06T16:10:08.591Z,17.70
2022-10-06T16:11:10.185Z,17.70
2022-10-06T16:12:15.971Z,17.70
2022-10-06T16:13:17.339Z,17.66
2022-10-06T16:14:18.977Z,17.60
2022-10-06T16:15:20.440Z,17.64
2022-10-06T16:16:21.863Z,17.65
2022-10-06T16:17:23.217Z,17.58
2022-10-06T16:18:24.776Z,17.40
2022-10-06T16:19:27.891Z,17.42
2022-10-06T16:20:29.237Z,17.51
2022-10-06T16:21:32.375Z,17.47
2022-10-06T16:22:33.723Z,17.40
2022-10-06T16:23:35.283Z,17.35
2022-10-06T16:24:36.640Z,17.30
2022-10-06T16:25:37.981Z,17.23
2022-10-06T16:26:39.417Z,17.28
2022-10-06T16:27:40.805Z,17.23
2022-10-06T16:28:42.228Z,17.26
2022-10-06T16:29:43.681Z,17.24
2022-10-06T16:30:54.537Z,17.23
2022-10-06T16:31:56.196Z,17.14
2022-10-06T16:38:05.489Z,17.01
2022-10-06T16:39:15.407Z,17.01
2022-10-06T16:53:24.921Z,16.51
2022-10-06T16:54:26.486Z,16.12
